sensor_id;sensor_type;location;lat;lon;timestamp;pressure;altitude;pressure_sealevel;temperature;humidity
14120;BME280;7138;49.246;9.100;2022-12-18T00:01:24;99952.13;;;-5.14;87.32
14120;BME280;7138;49.246;9.100;2022-12-18T00:03:51;99956.03;;;-5.17;87.38
14120;BME280;7138;49.246;9.100;2022-12-18T00:06:18;99954.25;;;-5.18;87.55
14120;BME280;7138;49.246;9.100;2022-12-18T00:08:47;99946.44;;;-5.21;87.52
14120;BME280;7138;49.246;9.100;2022-12-18T00:11:16;99958.53;;;-5.17;86.96
14120;BME280;7138;49.246;9.100;2022-12-18T00:13:43;99962.44;;;-5.21;87.00
14120;BME280;7138;49.246;9.100;2022-12-18T00:16:13;99951.00;;;-5.27;86.89
14120;BME280;7138;49.246;9.100;2022-12-18T00:18:39;99939.69;;;-5.42;86.40
14120;BME280;7138;49.246;9.100;2022-12-18T00:21:08;99955.03;;;-5.39;86.39
14120;BME280;7138;49.246;9.100;2022-12-18T00:23:35;99949.50;;;-5.45;86.24
14120;BME280;7138;49.246;9.100;2022-12-18T00:26:06;99958.34;;;-5.50;86.19
14120;BME280;7138;49.246;9.100;2022-12-18T00:28:33;99964.13;;;-5.52;86.21
14120;BME280;7138;49.246;9.100;2022-12-18T00:31:03;99960.47;;;-5.55;85.91
14120;BME280;7138;49.246;9.100;2022-12-18T00:33:29;99957.94;;;-5.65;85.94
14120;BME280;7138;49.246;9.100;2022-12-18T00:36:00;99953.78;;;-5.65;85.82
14120;BME280;7138;49.246;9.100;2022-12-18T00:38:27;99959.84;;;-5.63;86.09
14120;BME280;7138;49.246;9.100;2022-12-18T00:40:53;99958.06;;;-5.64;85.70
14120;BME280;7138;49.246;9.100;2022-12-18T00:43:20;99960.34;;;-5.67;85.73
14120;BME280;7138;49.246;9.100;2022-12-18T00:45:46;99960.19;;;-5.68;85.53
14120;BME280;7138;49.246;9.100;2022-12-18T00:48:11;99973.69;;;-5.68;85.51
14120;BME280;7138;49.246;9.100;2022-12-18T00:50:37;99976.09;;;-5.69;85.56
14120;BME280;7138;49.246;9.100;2022-12-18T00:53:04;99980.09;;;-5.71;85.85
14120;BME280;7138;49.246;9.100;2022-12-18T00:55:29;99979.34;;;-5.70;86.07
14120;BME280;7138;49.246;9.100;2022-12-18T00:57:55;99976.84;;;-5.70;85.91
14120;BME280;7138;49.246;9.100;2022-12-18T01:00:23;99982.50;;;-5.73;86.26
14120;BME280;7138;49.246;9.100;2022-12-18T01:02:49;99978.97;;;-5.75;86.60
14120;BME280;7138;49.246;9.100;2022-12-18T01:05:15;99972.16;;;-5.76;86.57
14120;BME280;7138;49.246;9.100;2022-12-18T01:07:41;99973.69;;;-5.78;86.78
14120;BME280;7138;49.246;9.100;2022-12-18T01:10:09;99970.41;;;-5.77;86.85
14120;BME280;7138;49.246;9.100;2022-12-18T01:12:37;99973.16;;;-5.74;87.29
14120;BME280;7138;49.246;9.100;2022-12-18T01:15:05;99958.34;;;-5.81;87.34
14120;BME280;7138;49.246;9.100;2022-12-18T01:17:33;99970.66;;;-5.74;86.86
14120;BME280;7138;49.246;9.100;2022-12-18T01:19:59;99969.91;;;-5.73;86.99
14120;BME280;7138;49.246;9.100;2022-12-18T01:22:25;99964.13;;;-5.72;86.77
14120;BME280;7138;49.246;9.100;2022-12-18T01:24:50;99976.84;;;-5.70;86.47
14120;BME280;7138;49.246;9.100;2022-12-18T01:27:16;99962.47;;;-5.71;87.10
14120;BME280;7138;49.246;9.100;2022-12-18T01:29:42;99971.06;;;-5.69;87.05
14120;BME280;7138;49.246;9.100;2022-12-18T01:32:08;99986.16;;;-5.69;86.47
14120;BME280;7138;49.246;9.100;2022-12-18T01:34:37;99982.00;;;-5.69;86.74
14120;BME280;7138;49.246;9.100;2022-12-18T01:37:03;99984.38;;;-5.70;86.24
14120;BME280;7138;49.246;9.100;2022-12-18T01:39:30;99988.69;;;-5.69;86.41
14120;BME280;7138;49.246;9.100;2022-12-18T01:41:57;99980.22;;;-5.70;86.29
14120;BME280;7138;49.246;9.100;2022-12-18T01:44:57;99975.31;;;-5.68;87.34
14120;BME280;7138;49.246;9.100;2022-12-18T01:47:29;99975.19;;;-5.70;87.05
14120;BME280;7138;49.246;9.100;2022-12-18T01:50:00;99967.00;;;-5.67;87.09
14120;BME280;7138;49.246;9.100;2022-12-18T01:52:29;99962.47;;;-5.61;87.38
14120;BME280;7138;49.246;9.100;2022-12-18T01:54:59;99975.97;;;-5.61;87.69
14120;BME280;7138;49.246;9.100;2022-12-18T01:57:27;99985.88;;;-5.62;87.88
14120;BME280;7138;49.246;9.100;2022-12-18T01:59:59;99985.53;;;-5.67;87.51
14120;BME280;7138;49.246;9.100;2022-12-18T02:02:28;99987.91;;;-5.68;87.82
14120;BME280;7138;49.246;9.100;2022-12-18T02:04:56;99961.44;;;-5.83;87.25
14120;BME280;7138;49.246;9.100;2022-12-18T02:07:32;99998.34;;;-5.74;87.04
14120;BME280;7138;49.246;9.100;2022-12-18T02:10:09;100001.75;;;-5.73;87.27
14120;BME280;7138;49.246;9.100;2022-12-18T02:12:46;99990.44;;;-5.78;87.23
14120;BME280;7138;49.246;9.100;2022-12-18T02:15:19;99973.69;;;-5.78;87.65
14120;BME280;7138;49.246;9.100;2022-12-18T02:17:55;99975.81;;;-5.82;87.12
14120;BME280;7138;49.246;9.100;2022-12-18T02:20:32;99981.59;;;-5.83;87.49
14120;BME280;7138;49.246;9.100;2022-12-18T02:23:11;99980.84;;;-5.82;87.00
14120;BME280;7138;49.246;9.100;2022-12-18T02:26:07;99979.31;;;-5.80;87.16
14120;BME280;7138;49.246;9.100;2022-12-18T02:28:44;99983.16;;;-5.85;87.54
14120;BME280;7138;49.246;9.100;2022-12-18T02:31:16;99992.44;;;-5.84;88.86
14120;BME280;7138;49.246;9.100;2022-12-18T02:33:50;99990.03;;;-5.83;88.83
14120;BME280;7138;49.246;9.100;2022-12-18T02:36:20;99989.13;;;-5.83;88.71
14120;BME280;7138;49.246;9.100;2022-12-18T02:38:48;99992.44;;;-5.84;88.73
14120;BME280;7138;49.246;9.100;2022-12-18T02:41:18;99994.97;;;-5.84;88.60
14120;BME280;7138;49.246;9.100;2022-12-18T02:43:49;99984.53;;;-5.89;89.13
14120;BME280;7138;49.246;9.100;2022-12-18T02:46:30;100002.41;;;-5.86;89.62
14120;BME280;7138;49.246;9.100;2022-12-18T02:49:14;99995.06;;;-5.83;89.72
14120;BME280;7138;49.246;9.100;2022-12-18T02:51:52;99994.09;;;-5.75;90.31
14120;BME280;7138;49.246;9.100;2022-12-18T02:54:34;99991.19;;;-5.79;91.21
14120;BME280;7138;49.246;9.100;2022-12-18T02:57:14;99982.47;;;-5.83;92.31
14120;BME280;7138;49.246;9.100;2022-12-18T02:59:56;99988.28;;;-5.84;92.02
14120;BME280;7138;49.246;9.100;2022-12-18T03:02:31;99980.47;;;-5.77;91.83
14120;BME280;7138;49.246;9.100;2022-12-18T03:05:10;99981.63;;;-5.73;91.58
14120;BME280;7138;49.246;9.100;2022-12-18T03:07:43;99979.34;;;-5.70;91.78
14120;BME280;7138;49.246;9.100;2022-12-18T03:10:16;99980.09;;;-5.71;91.67
14120;BME280;7138;49.246;9.100;2022-12-18T03:12:52;99992.34;;;-5.66;91.73
14120;BME280;7138;49.246;9.100;2022-12-18T03:15:24;99973.69;;;-5.58;91.38
14120;BME280;7138;49.246;9.100;2022-12-18T03:17:59;99964.84;;;-5.53;91.04
14120;BME280;7138;49.246;9.100;2022-12-18T03:20:31;99965.50;;;-5.55;91.51
14120;BME280;7138;49.246;9.100;2022-12-18T03:23:07;99968.41;;;-5.50;91.67
14120;BME280;7138;49.246;9.100;2022-12-18T03:25:39;99970.94;;;-5.50;91.49
14120;BME280;7138;49.246;9.100;2022-12-18T03:28:13;99978.22;;;-5.54;91.70
14120;BME280;7138;49.246;9.100;2022-12-18T03:30:43;99986.78;;;-5.62;92.35
14120;BME280;7138;49.246;9.100;2022-12-18T03:33:16;99975.31;;;-5.68;92.52
14120;BME280;7138;49.246;9.100;2022-12-18T03:35:46;99960.59;;;-5.74;92.56
14120;BME280;7138;49.246;9.100;2022-12-18T03:38:12;99978.84;;;-5.66;92.19
14120;BME280;7138;49.246;9.100;2022-12-18T03:40:52;99980.25;;;-5.60;92.32
14120;BME280;7138;49.246;9.100;2022-12-18T03:43:36;99978.72;;;-5.58;92.12
14120;BME280;7138;49.246;9.100;2022-12-18T03:46:10;99991.06;;;-5.50;91.58
14120;BME280;7138;49.246;9.100;2022-12-18T03:48:45;99987.94;;;-5.48;91.44
14120;BME280;7138;49.246;9.100;2022-12-18T03:51:24;99993.06;;;-5.46;91.03
14120;BME280;7138;49.246;9.100;2022-12-18T03:53:57;99997.75;;;-5.51;91.22
14120;BME280;7138;49.246;9.100;2022-12-18T03:56:29;99970.41;;;-5.67;90.76
14120;BME280;7138;49.246;9.100;2022-12-18T03:59:02;99976.47;;;-5.55;90.99
14120;BME280;7138;49.246;9.100;2022-12-18T04:01:32;99977.59;;;-5.61;91.53
14120;BME280;7138;49.246;9.100;2022-12-18T04:04:01;99985.78;;;-5.54;91.12
14120;BME280;7138;49.246;9.100;2022-12-18T04:06:29;99991.94;;;-5.60;91.48
14120;BME280;7138;49.246;9.100;2022-12-18T04:08:57;99985.28;;;-5.60;91.35
14120;BME280;7138;49.246;9.100;2022-12-18T04:11:23;99989.28;;;-5.62;91.42
14120;BME280;7138;49.246;9.100;2022-12-18T04:13:49;99988.81;;;-5.58;91.51
14120;BME280;7138;49.246;9.100;2022-12-18T04:16:16;99991.69;;;-5.53;91.09
14120;BME280;7138;49.246;9.100;2022-12-18T04:18:42;99997.00;;;-5.60;91.22
14120;BME280;7138;49.246;9.100;2022-12-18T04:21:09;99990.81;;;-5.64;91.50
14120;BME280;7138;49.246;9.100;2022-12-18T04:23:35;99988.69;;;-5.69;91.52
14120;BME280;7138;49.246;9.100;2022-12-18T04:26:01;99992.19;;;-5.67;91.60
14120;BME280;7138;49.246;9.100;2022-12-18T04:28:27;99986.13;;;-5.79;91.81
14120;BME280;7138;49.246;9.100;2022-12-18T04:30:53;99998.63;;;-5.81;92.23
14120;BME280;7138;49.246;9.100;2022-12-18T04:33:20;100013.47;;;-5.74;91.92
14120;BME280;7138;49.246;9.100;2022-12-18T04:35:46;100008.19;;;-5.67;91.51
14120;BME280;7138;49.246;9.100;2022-12-18T04:38:12;99999.00;;;-5.66;90.86
14120;BME280;7138;49.246;9.100;2022-12-18T04:40:38;99990.31;;;-5.70;91.08
14120;BME280;7138;49.246;9.100;2022-12-18T04:43:04;99992.56;;;-5.73;91.14
14120;BME280;7138;49.246;9.100;2022-12-18T04:45:31;99993.19;;;-5.75;90.85
14120;BME280;7138;49.246;9.100;2022-12-18T04:47:57;99995.31;;;-5.80;90.68
14120;BME280;7138;49.246;9.100;2022-12-18T04:50:24;100004.66;;;-5.89;90.94
14120;BME280;7138;49.246;9.100;2022-12-18T04:52:50;100006.19;;;-5.91;90.83
14120;BME280;7138;49.246;9.100;2022-12-18T04:55:16;100006.91;;;-5.92;90.60
14120;BME280;7138;49.246;9.100;2022-12-18T04:57:42;100004.16;;;-5.95;91.30
14120;BME280;7138;49.246;9.100;2022-12-18T05:00:10;100001.63;;;-5.95;91.08
14120;BME280;7138;49.246;9.100;2022-12-18T05:02:36;100001.63;;;-6.05;90.80
14120;BME280;7138;49.246;9.100;2022-12-18T05:05:02;100004.88;;;-6.06;90.85
14120;BME280;7138;49.246;9.100;2022-12-18T05:07:30;100008.78;;;-6.10;90.75
14120;BME280;7138;49.246;9.100;2022-12-18T05:09:56;100006.72;;;-6.14;91.01
14120;BME280;7138;49.246;9.100;2022-12-18T05:12:22;100010.28;;;-6.12;90.54
14120;BME280;7138;49.246;9.100;2022-12-18T05:14:47;100012.19;;;-6.09;90.52
14120;BME280;7138;49.246;9.100;2022-12-18T05:17:13;100007.78;;;-6.12;90.19
14120;BME280;7138;49.246;9.100;2022-12-18T05:19:39;100010.66;;;-6.07;89.94
14120;BME280;7138;49.246;9.100;2022-12-18T05:22:05;100013.19;;;-6.07;89.63
14120;BME280;7138;49.246;9.100;2022-12-18T05:24:32;100007.66;;;-6.03;89.63
14120;BME280;7138;49.246;9.100;2022-12-18T05:26:58;100008.41;;;-6.04;89.30
14120;BME280;7138;49.246;9.100;2022-12-18T05:29:24;100016.22;;;-6.11;89.46
14120;BME280;7138;49.246;9.100;2022-12-18T05:31:50;100023.50;;;-6.14;89.26
14120;BME280;7138;49.246;9.100;2022-12-18T05:34:16;100024.72;;;-6.19;89.04
14120;BME280;7138;49.246;9.100;2022-12-18T05:36:42;100006.16;;;-6.40;89.01
14120;BME280;7138;49.246;9.100;2022-12-18T05:39:09;100034.25;;;-6.25;89.19
14120;BME280;7138;49.246;9.100;2022-12-18T05:41:36;100028.34;;;-6.26;89.27
14120;BME280;7138;49.246;9.100;2022-12-18T05:44:02;100022.03;;;-6.31;89.60
14120;BME280;7138;49.246;9.100;2022-12-18T05:46:28;100032.38;;;-6.28;89.27
14120;BME280;7138;49.246;9.100;2022-12-18T05:48:58;100047.19;;;-6.31;89.19
14120;BME280;7138;49.246;9.100;2022-12-18T05:51:24;100041.53;;;-6.28;89.21
14120;BME280;7138;49.246;9.100;2022-12-18T05:53:50;100042.16;;;-6.31;88.97
14120;BME280;7138;49.246;9.100;2022-12-18T05:56:20;100035.25;;;-6.33;89.09
14120;BME280;7138;49.246;9.100;2022-12-18T05:58:51;100044.56;;;-6.32;88.59
14120;BME280;7138;49.246;9.100;2022-12-18T06:01:21;100036.50;;;-6.28;88.60
14120;BME280;7138;49.246;9.100;2022-12-18T06:03:47;100047.06;;;-6.32;88.97
14120;BME280;7138;49.246;9.100;2022-12-18T06:06:15;100041.28;;;-6.31;88.52
14120;BME280;7138;49.246;9.100;2022-12-18T06:08:42;100040.31;;;-6.23;88.32
14120;BME280;7138;49.246;9.100;2022-12-18T06:11:08;100042.56;;;-6.26;88.19
14120;BME280;7138;49.246;9.100;2022-12-18T06:13:34;100042.63;;;-6.35;88.60
14120;BME280;7138;49.246;9.100;2022-12-18T06:16:04;100044.03;;;-6.38;88.43
14120;BME280;7138;49.246;9.100;2022-12-18T06:18:30;100045.66;;;-6.39;88.42
14120;BME280;7138;49.246;9.100;2022-12-18T06:20:56;100042.53;;;-6.36;87.91
14120;BME280;7138;49.246;9.100;2022-12-18T06:23:22;100049.91;;;-6.38;88.27
14120;BME280;7138;49.246;9.100;2022-12-18T06:25:48;100035.72;;;-6.37;87.99
14120;BME280;7138;49.246;9.100;2022-12-18T06:28:14;100039.84;;;-6.38;88.04
14120;BME280;7138;49.246;9.100;2022-12-18T06:30:43;100046.94;;;-6.34;88.04
14120;BME280;7138;49.246;9.100;2022-12-18T06:33:10;100050.19;;;-6.35;88.10
14120;BME280;7138;49.246;9.100;2022-12-18T06:35:36;100045.66;;;-6.39;87.70
14120;BME280;7138;49.246;9.100;2022-12-18T06:38:02;100052.94;;;-6.42;87.58
14120;BME280;7138;49.246;9.100;2022-12-18T06:40:28;100043.00;;;-6.40;87.94
14120;BME280;7138;49.246;9.100;2022-12-18T06:42:54;100054.31;;;-6.45;87.94
14120;BME280;7138;49.246;9.100;2022-12-18T06:45:20;100056.56;;;-6.48;88.40
14120;BME280;7138;49.246;9.100;2022-12-18T06:47:46;100033.81;;;-6.69;87.88
14120;BME280;7138;49.246;9.100;2022-12-18T06:50:13;100062.53;;;-6.56;88.08
14120;BME280;7138;49.246;9.100;2022-12-18T06:52:39;100071.56;;;-6.58;88.14
14120;BME280;7138;49.246;9.100;2022-12-18T06:55:07;100075.34;;;-6.63;87.98
14120;BME280;7138;49.246;9.100;2022-12-18T06:57:33;100084.16;;;-6.58;87.65
14120;BME280;7138;49.246;9.100;2022-12-18T06:59:59;100081.50;;;-6.60;88.22
14120;BME280;7138;49.246;9.100;2022-12-18T07:02:25;100086.47;;;-6.70;88.05
14120;BME280;7138;49.246;9.100;2022-12-18T07:04:51;100078.59;;;-6.65;88.13
14120;BME280;7138;49.246;9.100;2022-12-18T07:07:18;100088.84;;;-6.72;89.07
14120;BME280;7138;49.246;9.100;2022-12-18T07:09:44;100096.88;;;-6.76;88.56
14120;BME280;7138;49.246;9.100;2022-12-18T07:12:10;100088.38;;;-6.68;88.83
14120;BME280;7138;49.246;9.100;2022-12-18T07:14:36;100086.47;;;-6.70;88.64
14120;BME280;7138;49.246;9.100;2022-12-18T07:17:02;100088.44;;;-6.76;88.42
14120;BME280;7138;49.246;9.100;2022-12-18T07:19:28;100097.41;;;-6.70;88.87
14120;BME280;7138;49.246;9.100;2022-12-18T07:21:54;100100.66;;;-6.71;88.59
14120;BME280;7138;49.246;9.100;2022-12-18T07:24:22;100092.50;;;-6.68;88.79
14120;BME280;7138;49.246;9.100;2022-12-18T07:26:48;100088.78;;;-6.82;88.46
14120;BME280;7138;49.246;9.100;2022-12-18T07:29:13;100101.63;;;-6.79;89.05
14120;BME280;7138;49.246;9.100;2022-12-18T07:31:39;100103.88;;;-6.82;89.17
14120;BME280;7138;49.246;9.100;2022-12-18T07:34:09;100107.56;;;-6.78;88.87
14120;BME280;7138;49.246;9.100;2022-12-18T07:36:35;100111.06;;;-6.76;89.13
14120;BME280;7138;49.246;9.100;2022-12-18T07:39:01;100108.41;;;-6.78;88.62
14120;BME280;7138;49.246;9.100;2022-12-18T07:41:28;100102.53;;;-6.78;89.07
14120;BME280;7138;49.246;9.100;2022-12-18T07:43:54;100108.22;;;-6.71;88.54
14120;BME280;7138;49.246;9.100;2022-12-18T07:46:21;100111.72;;;-6.69;88.38
14120;BME280;7138;49.246;9.100;2022-12-18T07:48:47;100115.94;;;-6.78;89.34
14120;BME280;7138;49.246;9.100;2022-12-18T07:51:13;100117.53;;;-6.70;88.88
14120;BME280;7138;49.246;9.100;2022-12-18T07:53:40;100116.28;;;-6.65;89.25
14120;BME280;7138;49.246;9.100;2022-12-18T07:56:08;100119.06;;;-6.61;89.39
14120;BME280;7138;49.246;9.100;2022-12-18T07:58:36;100119.69;;;-6.64;89.54
14120;BME280;7138;49.246;9.100;2022-12-18T08:01:04;100116.09;;;-6.57;89.52
14120;BME280;7138;49.246;9.100;2022-12-18T08:03:30;100122.69;;;-6.49;89.51
14120;BME280;7138;49.246;9.100;2022-12-18T08:05:59;100119.53;;;-6.47;89.27
14120;BME280;7138;49.246;9.100;2022-12-18T08:08:25;100111.53;;;-6.43;89.31
14120;BME280;7138;49.246;9.100;2022-12-18T08:10:51;100116.09;;;-6.39;89.37
14120;BME280;7138;49.246;9.100;2022-12-18T08:13:17;100114.75;;;-6.25;89.20
14120;BME280;7138;49.246;9.100;2022-12-18T08:15:44;100115.19;;;-6.21;89.27
14120;BME280;7138;49.246;9.100;2022-12-18T08:18:10;100114.56;;;-6.18;89.33
14120;BME280;7138;49.246;9.100;2022-12-18T08:20:36;100108.91;;;-6.16;89.16
14120;BME280;7138;49.246;9.100;2022-12-18T08:23:02;100116.25;;;-6.08;89.34
14120;BME280;7138;49.246;9.100;2022-12-18T08:25:27;100112.47;;;-6.03;89.02
14120;BME280;7138;49.246;9.100;2022-12-18T08:27:53;100116.41;;;-5.97;89.31
14120;BME280;7138;49.246;9.100;2022-12-18T08:30:20;100118.69;;;-5.90;88.99
14120;BME280;7138;49.246;9.100;2022-12-18T08:32:51;100112.66;;;-5.82;89.14
14120;BME280;7138;49.246;9.100;2022-12-18T08:35:18;100107.25;;;-5.76;89.35
14120;BME280;7138;49.246;9.100;2022-12-18T08:37:44;100104.09;;;-5.74;89.40
14120;BME280;7138;49.246;9.100;2022-12-18T08:40:11;100104.13;;;-5.64;89.51
14120;BME280;7138;49.246;9.100;2022-12-18T08:42:38;100095.72;;;-5.54;89.51
14120;BME280;7138;49.246;9.100;2022-12-18T08:45:22;100098.59;;;-5.49;89.40
14120;BME280;7138;49.246;9.100;2022-12-18T08:47:50;100099.88;;;-5.55;89.67
14120;BME280;7138;49.246;9.100;2022-12-18T08:50:16;100093.44;;;-5.41;89.74
14120;BME280;7138;49.246;9.100;2022-12-18T08:52:42;100097.13;;;-5.37;89.88
14120;BME280;7138;49.246;9.100;2022-12-18T08:55:09;100105.34;;;-5.30;89.70
14120;BME280;7138;49.246;9.100;2022-12-18T08:57:35;100094.00;;;-5.15;89.76
14120;BME280;7138;49.246;9.100;2022-12-18T09:00:01;100079.13;;;-5.02;89.61
14120;BME280;7138;49.246;9.100;2022-12-18T09:02:27;100071.03;;;-4.98;89.27
14120;BME280;7138;49.246;9.100;2022-12-18T09:04:54;100068.28;;;-5.01;89.70
14120;BME280;7138;49.246;9.100;2022-12-18T09:07:20;100066.63;;;-4.90;89.72
14120;BME280;7138;49.246;9.100;2022-12-18T09:09:46;100060.97;;;-4.87;89.61
14120;BME280;7138;49.246;9.100;2022-12-18T09:12:12;100060.81;;;-4.79;90.18
14120;BME280;7138;49.246;9.100;2022-12-18T09:14:38;100067.09;;;-4.64;89.77
14120;BME280;7138;49.246;9.100;2022-12-18T09:17:04;100071.09;;;-4.56;89.39
14120;BME280;7138;49.246;9.100;2022-12-18T09:19:30;100067.91;;;-4.43;89.23
14120;BME280;7138;49.246;9.100;2022-12-18T09:21:57;100072.06;;;-4.33;89.10
14120;BME280;7138;49.246;9.100;2022-12-18T09:24:23;100071.31;;;-4.32;89.44
14120;BME280;7138;49.246;9.100;2022-12-18T09:26:53;100058.50;;;-4.14;89.33
14120;BME280;7138;49.246;9.100;2022-12-18T09:29:20;100060.59;;;-4.08;88.70
14120;BME280;7138;49.246;9.100;2022-12-18T09:31:47;100055.47;;;-3.98;88.18
14120;BME280;7138;49.246;9.100;2022-12-18T09:34:13;100054.22;;;-3.93;88.55
14120;BME280;7138;49.246;9.100;2022-12-18T09:36:39;100057.22;;;-3.87;88.30
14120;BME280;7138;49.246;9.100;2022-12-18T09:39:06;100048.56;;;-3.79;88.70
14120;BME280;7138;49.246;9.100;2022-12-18T09:41:46;100054.50;;;-3.78;87.89
14120;BME280;7138;49.246;9.100;2022-12-18T09:44:21;100061.19;;;-3.79;88.53
14120;BME280;7138;49.246;9.100;2022-12-18T09:46:59;100058.34;;;-3.62;88.34
14120;BME280;7138;49.246;9.100;2022-12-18T09:49:32;100050.44;;;-3.55;88.49
14120;BME280;7138;49.246;9.100;2022-12-18T09:52:08;100048.06;;;-3.42;88.12
14120;BME280;7138;49.246;9.100;2022-12-18T09:54:39;100050.31;;;-3.35;88.22
14120;BME280;7138;49.246;9.100;2022-12-18T09:57:05;100048.13;;;-3.30;88.00
14120;BME280;7138;49.246;9.100;2022-12-18T09:59:36;100050.91;;;-3.15;87.87
14120;BME280;7138;49.246;9.100;2022-12-18T10:02:15;100047.31;;;-3.07;87.23
14120;BME280;7138;49.246;9.100;2022-12-18T10:04:41;100051.28;;;-2.99;87.66
14120;BME280;7138;49.246;9.100;2022-12-18T10:07:14;100050.63;;;-2.85;88.16
14120;BME280;7138;49.246;9.100;2022-12-18T10:09:58;100053.94;;;-2.74;86.87
14120;BME280;7138;49.246;9.100;2022-12-18T10:12:33;100045.13;;;-2.91;86.65
14120;BME280;7138;49.246;9.100;2022-12-18T10:15:07;100057.91;;;-2.78;87.04
14120;BME280;7138;49.246;9.100;2022-12-18T10:17:45;100058.78;;;-2.66;87.47
14120;BME280;7138;49.246;9.100;2022-12-18T10:20:22;100050.75;;;-2.60;86.74
14120;BME280;7138;49.246;9.100;2022-12-18T10:22:57;100061.75;;;-2.48;86.84
14120;BME280;7138;49.246;9.100;2022-12-18T10:25:33;100058.16;;;-2.40;87.12
14120;BME280;7138;49.246;9.100;2022-12-18T10:28:12;100053.28;;;-2.26;86.60
14120;BME280;7138;49.246;9.100;2022-12-18T10:30:40;100061.09;;;-2.23;86.80
14120;BME280;7138;49.246;9.100;2022-12-18T10:33:12;100045.13;;;-2.22;86.13
14120;BME280;7138;49.246;9.100;2022-12-18T10:35:42;100057.22;;;-2.06;86.46
14120;BME280;7138;49.246;9.100;2022-12-18T10:38:23;100050.63;;;-2.04;85.80
14120;BME280;7138;49.246;9.100;2022-12-18T10:40:55;100049.28;;;-1.99;86.91
14120;BME280;7138;49.246;9.100;2022-12-18T10:43:25;100035.94;;;-1.96;86.21
14120;BME280;7138;49.246;9.100;2022-12-18T10:46:07;100045.16;;;-1.74;86.35
14120;BME280;7138;49.246;9.100;2022-12-18T10:48:54;100039.56;;;-1.56;86.17
14120;BME280;7138;49.246;9.100;2022-12-18T10:51:24;100042.50;;;-1.50;85.27
14120;BME280;7138;49.246;9.100;2022-12-18T10:53:56;100036.75;;;-1.48;84.96
14120;BME280;7138;49.246;9.100;2022-12-18T10:56:26;100038.88;;;-1.54;85.66
14120;BME280;7138;49.246;9.100;2022-12-18T10:58:59;100039.22;;;-1.49;84.89
14120;BME280;7138;49.246;9.100;2022-12-18T11:01:26;100039.72;;;-1.42;85.74
14120;BME280;7138;49.246;9.100;2022-12-18T11:04:02;100035.25;;;-1.33;85.50
14120;BME280;7138;49.246;9.100;2022-12-18T11:06:32;100033.34;;;-1.24;85.73
14120;BME280;7138;49.246;9.100;2022-12-18T11:09:02;100030.44;;;-1.17;85.03
14120;BME280;7138;49.246;9.100;2022-12-18T11:11:32;100017.97;;;-1.14;85.03
14120;BME280;7138;49.246;9.100;2022-12-18T11:14:02;100022.34;;;-1.11;85.27
14120;BME280;7138;49.246;9.100;2022-12-18T11:16:33;100012.03;;;-1.01;85.89
14120;BME280;7138;49.246;9.100;2022-12-18T11:19:20;100010.59;;;-0.84;84.98
14120;BME280;7138;49.246;9.100;2022-12-18T11:21:48;100017.06;;;-0.76;84.79
14120;BME280;7138;49.246;9.100;2022-12-18T11:24:24;100017.06;;;-0.76;84.60
14120;BME280;7138;49.246;9.100;2022-12-18T11:26:53;100010.81;;;-0.68;83.79
14120;BME280;7138;49.246;9.100;2022-12-18T11:29:30;100013.94;;;-0.59;84.07
14120;BME280;7138;49.246;9.100;2022-12-18T11:32:31;100021.63;;;-0.58;83.28
14120;BME280;7138;49.246;9.100;2022-12-18T11:35:04;100015.00;;;-0.56;83.93
14120;BME280;7138;49.246;9.100;2022-12-18T11:37:35;100010.59;;;-0.45;84.28
14120;BME280;7138;49.246;9.100;2022-12-18T11:40:11;99997.22;;;-0.42;83.38
14120;BME280;7138;49.246;9.100;2022-12-18T11:42:49;99995.84;;;-0.37;82.73
14120;BME280;7138;49.246;9.100;2022-12-18T11:45:29;99990.97;;;-0.34;83.12
14120;BME280;7138;49.246;9.100;2022-12-18T11:48:04;99999.94;;;-0.39;82.67
14120;BME280;7138;49.246;9.100;2022-12-18T11:50:46;100003.28;;;-0.40;82.91
14120;BME280;7138;49.246;9.100;2022-12-18T11:53:13;99995.25;;;-0.33;83.97
14120;BME280;7138;49.246;9.100;2022-12-18T11:55:49;99998.28;;;-0.26;82.86
14120;BME280;7138;49.246;9.100;2022-12-18T11:58:39;99997.00;;;-0.19;83.05
14120;BME280;7138;49.246;9.100;2022-12-18T12:01:21;99981.63;;;-0.08;83.35
14120;BME280;7138;49.246;9.100;2022-12-18T12:04:31;99973.09;;;0.05;82.80
14120;BME280;7138;49.246;9.100;2022-12-18T12:07:16;99970.03;;;0.11;82.34
14120;BME280;7138;49.246;9.100;2022-12-18T12:09:57;99961.72;;;0.13;81.85
14120;BME280;7138;49.246;9.100;2022-12-18T12:12:39;99958.06;;;0.23;82.74
14120;BME280;7138;49.246;9.100;2022-12-18T12:15:25;99969.75;;;0.34;82.01
14120;BME280;7138;49.246;9.100;2022-12-18T12:18:01;99971.25;;;0.30;81.38
14120;BME280;7138;49.246;9.100;2022-12-18T12:20:44;99974.47;;;0.28;81.33
14120;BME280;7138;49.246;9.100;2022-12-18T12:23:23;99969.56;;;0.31;81.46
14120;BME280;7138;49.246;9.100;2022-12-18T12:26:00;99964.84;;;0.37;81.46
14120;BME280;7138;49.246;9.100;2022-12-18T12:31:37;99955.03;;;0.43;81.19
14120;BME280;7138;49.246;9.100;2022-12-18T12:34:18;99954.78;;;0.38;81.08
14120;BME280;7138;49.246;9.100;2022-12-18T12:37:03;99947.66;;;0.33;81.42
14120;BME280;7138;49.246;9.100;2022-12-18T12:39:36;99970.56;;;0.47;81.46
14120;BME280;7138;49.246;9.100;2022-12-18T12:42:14;99973.56;;;0.55;81.30
14120;BME280;7138;49.246;9.100;2022-12-18T12:45:05;99969.00;;;0.64;81.85
14120;BME280;7138;49.246;9.100;2022-12-18T12:47:38;99975.16;;;0.68;81.40
14120;BME280;7138;49.246;9.100;2022-12-18T12:50:16;99974.13;;;0.79;81.48
14120;BME280;7138;49.246;9.100;2022-12-18T12:52:47;99974.13;;;0.79;80.41
14120;BME280;7138;49.246;9.100;2022-12-18T12:55:19;99969.47;;;0.86;80.96
14120;BME280;7138;49.246;9.100;2022-12-18T12:57:54;99967.03;;;0.88;80.51
14120;BME280;7138;49.246;9.100;2022-12-18T13:00:25;99961.13;;;0.89;80.80
14120;BME280;7138;49.246;9.100;2022-12-18T13:03:07;99966.69;;;0.96;81.04
14120;BME280;7138;49.246;9.100;2022-12-18T13:05:45;99963.16;;;0.94;79.59
14120;BME280;7138;49.246;9.100;2022-12-18T13:08:24;99958.34;;;0.84;79.57
14120;BME280;7138;49.246;9.100;2022-12-18T13:10:53;99975.81;;;0.93;80.13
14120;BME280;7138;49.246;9.100;2022-12-18T13:13:51;99970.78;;;0.94;79.44
14120;BME280;7138;49.246;9.100;2022-12-18T13:16:20;99965.00;;;0.97;79.92
14120;BME280;7138;49.246;9.100;2022-12-18T13:18:53;99962.72;;;1.01;79.84
14120;BME280;7138;49.246;9.100;2022-12-18T13:21:25;99958.06;;;1.09;80.19
14120;BME280;7138;49.246;9.100;2022-12-18T13:23:53;99956.38;;;1.09;79.77
14120;BME280;7138;49.246;9.100;2022-12-18T13:26:34;99955.88;;;1.15;79.56
14120;BME280;7138;49.246;9.100;2022-12-18T13:29:02;99954.88;;;1.13;79.11